sensor_id;sensor_type;location;lat;lon;timestamp;pressure;altitude;pressure_sealevel;temperature;humidity
80988;BME280;70452;39.386;-3.210;2023-06-14T00:00:21;93978.50;;;16.15;74.17
80988;BME280;70452;39.386;-3.210;2023-06-14T00:02:47;93978.81;;;16.13;73.77
80988;BME280;70452;39.386;-3.210;2023-06-14T00:05:13;93973.94;;;16.10;74.15
80988;BME280;70452;39.386;-3.210;2023-06-14T00:07:40;93977.03;;;16.08;73.68
80988;BME280;70452;39.386;-3.210;2023-06-14T00:10:12;93974.91;;;16.05;74.23
80988;BME280;70452;39.386;-3.210;2023-06-14T00:12:38;93977.66;;;16.05;74.23
80988;BME280;70452;39.386;-3.210;2023-06-14T00:15:06;93982.34;;;16.05;74.35
80988;BME280;70452;39.386;-3.210;2023-06-14T00:17:33;93981.56;;;16.04;73.96
80988;BME280;70452;39.386;-3.210;2023-06-14T00:19:59;93980.25;;;16.02;74.14
80988;BME280;70452;39.386;-3.210;2023-06-14T00:22:26;93974.59;;;15.98;74.44
80988;BME280;70452;39.386;-3.210;2023-06-14T00:24:54;93980.56;;;16.00;74.90
80988;BME280;70452;39.386;-3.210;2023-06-14T00:27:20;93977.34;;;15.98;75.00
80988;BME280;70452;39.386;-3.210;2023-06-14T00:29:47;93980.72;;;15.95;75.24
80988;BME280;70452;39.386;-3.210;2023-06-14T00:32:12;93985.44;;;15.94;75.23
80988;BME280;70452;39.386;-3.210;2023-06-14T00:34:39;93987.38;;;15.94;74.92
80988;BME280;70452;39.386;-3.210;2023-06-14T00:37:05;93984.31;;;15.87;75.05
80988;BME280;70452;39.386;-3.210;2023-06-14T00:39:31;93987.53;;;15.89;75.10
80988;BME280;70452;39.386;-3.210;2023-06-14T00:41:57;93992.53;;;15.87;74.93
80988;BME280;70452;39.386;-3.210;2023-06-14T00:44:24;93993.34;;;15.87;74.98
80988;BME280;70452;39.386;-3.210;2023-06-14T00:46:51;93990.13;;;15.85;74.83
80988;BME280;70452;39.386;-3.210;2023-06-14T00:49:17;93992.03;;;15.85;74.90
80988;BME280;70452;39.386;-3.210;2023-06-14T00:51:43;93987.84;;;15.87;74.79
80988;BME280;70452;39.386;-3.210;2023-06-14T00:54:14;93996.41;;;15.86;74.45
80988;BME280;70452;39.386;-3.210;2023-06-14T00:56:40;93988.66;;;15.88;74.27
80988;BME280;70452;39.386;-3.210;2023-06-14T00:59:07;93992.88;;;15.94;73.95
80988;BME280;70452;39.386;-3.210;2023-06-14T01:01:33;93988.97;;;15.95;73.91
80988;BME280;70452;39.386;-3.210;2023-06-14T01:03:59;93998.53;;;15.98;73.97
80988;BME280;70452;39.386;-3.210;2023-06-14T01:09:23;93991.09;;;15.98;73.66
80988;BME280;70452;39.386;-3.210;2023-06-14T01:12:06;93987.38;;;16.03;73.93
80988;BME280;70452;39.386;-3.210;2023-06-14T01:14:33;93994.81;;;16.02;73.46
80988;BME280;70452;39.386;-3.210;2023-06-14T01:17:01;93993.50;;;16.00;73.94
80988;BME280;70452;39.386;-3.210;2023-06-14T01:19:28;93991.09;;;15.98;73.99
80988;BME280;70452;39.386;-3.210;2023-06-14T01:22:00;93992.53;;;15.96;74.07
80988;BME280;70452;39.386;-3.210;2023-06-14T01:24:26;93993.81;;;15.89;74.22
80988;BME280;70452;39.386;-3.210;2023-06-14T01:26:58;93993.03;;;15.89;74.31
80988;BME280;70452;39.386;-3.210;2023-06-14T01:29:26;93990.28;;;15.89;74.31
80988;BME280;70452;39.386;-3.210;2023-06-14T01:31:56;93996.09;;;15.87;74.40
80988;BME280;70452;39.386;-3.210;2023-06-14T01:34:21;93984.09;;;15.83;74.68
80988;BME280;70452;39.386;-3.210;2023-06-14T01:36:48;93990.75;;;15.82;74.80
80988;BME280;70452;39.386;-3.210;2023-06-14T01:39:15;93986.53;;;15.76;75.15
80988;BME280;70452;39.386;-3.210;2023-06-14T01:41:42;93989.06;;;15.72;75.16
80988;BME280;70452;39.386;-3.210;2023-06-14T01:44:09;93994.09;;;15.70;75.16
80988;BME280;70452;39.386;-3.210;2023-06-14T01:46:36;93992.28;;;15.66;75.29
80988;BME280;70452;39.386;-3.210;2023-06-14T01:49:04;93990.69;;;15.65;75.52
80988;BME280;70452;39.386;-3.210;2023-06-14T01:51:29;93992.59;;;15.64;75.93
80988;BME280;70452;39.386;-3.210;2023-06-14T01:53:57;93992.97;;;15.63;75.58
80988;BME280;70452;39.386;-3.210;2023-06-14T01:56:24;93988.59;;;15.62;75.70
80988;BME280;70452;39.386;-3.210;2023-06-14T01:58:50;93993.91;;;15.58;75.82
80988;BME280;70452;39.386;-3.210;2023-06-14T02:01:18;93996.66;;;15.58;75.73
80988;BME280;70452;39.386;-3.210;2023-06-14T02:03:44;93994.38;;;15.60;75.87
80988;BME280;70452;39.386;-3.210;2023-06-14T02:06:10;93987.09;;;15.55;75.82
80988;BME280;70452;39.386;-3.210;2023-06-14T02:08:39;93994.88;;;15.62;75.58
80988;BME280;70452;39.386;-3.210;2023-06-14T02:11:06;93991.00;;;15.63;75.54
80988;BME280;70452;39.386;-3.210;2023-06-14T02:13:32;93997.63;;;15.62;75.62
80988;BME280;70452;39.386;-3.210;2023-06-14T02:15:57;93995.69;;;15.63;75.55
80988;BME280;70452;39.386;-3.210;2023-06-14T02:18:25;93986.78;;;15.57;76.04
80988;BME280;70452;39.386;-3.210;2023-06-14T02:20:50;93989.53;;;15.57;75.95
80988;BME280;70452;39.386;-3.210;2023-06-14T02:23:16;94001.16;;;15.54;76.05
80988;BME280;70452;39.386;-3.210;2023-06-14T02:25:41;93989.38;;;15.53;76.02
80988;BME280;70452;39.386;-3.210;2023-06-14T02:28:09;93986.13;;;15.51;76.30
80988;BME280;70452;39.386;-3.210;2023-06-14T02:30:38;93993.25;;;15.52;76.31
80988;BME280;70452;39.386;-3.210;2023-06-14T02:33:04;93992.44;;;15.52;76.39
80988;BME280;70452;39.386;-3.210;2023-06-14T02:35:30;93999.53;;;15.53;76.27
80988;BME280;70452;39.386;-3.210;2023-06-14T02:37:56;93993.41;;;15.47;76.32
80988;BME280;70452;39.386;-3.210;2023-06-14T02:40:23;93992.09;;;15.45;76.51
80988;BME280;70452;39.386;-3.210;2023-06-14T02:42:49;93992.56;;;15.47;76.74
80988;BME280;70452;39.386;-3.210;2023-06-14T02:45:16;94000.81;;;15.47;76.43
80988;BME280;70452;39.386;-3.210;2023-06-14T02:47:43;94003.06;;;15.45;76.64
80988;BME280;70452;39.386;-3.210;2023-06-14T02:50:08;94007.06;;;15.38;77.10
80988;BME280;70452;39.386;-3.210;2023-06-14T02:52:37;94003.22;;;15.40;77.15
80988;BME280;70452;39.386;-3.210;2023-06-14T02:55:07;94009.66;;;15.35;77.48
80988;BME280;70452;39.386;-3.210;2023-06-14T02:57:36;94009.47;;;15.31;77.96
80988;BME280;70452;39.386;-3.210;2023-06-14T03:00:02;94012.88;;;15.28;77.59
80988;BME280;70452;39.386;-3.210;2023-06-14T03:02:28;94006.56;;;15.28;77.97
80988;BME280;70452;39.386;-3.210;2023-06-14T03:04:55;94015.44;;;15.25;78.54
80988;BME280;70452;39.386;-3.210;2023-06-14T03:07:21;94015.25;;;15.21;78.91
80988;BME280;70452;39.386;-3.210;2023-06-14T03:09:48;94014.47;;;15.21;78.83
80988;BME280;70452;39.386;-3.210;2023-06-14T03:12:14;94018.97;;;15.16;79.13
80988;BME280;70452;39.386;-3.210;2023-06-14T03:14:40;94025.41;;;15.12;79.47
80988;BME280;70452;39.386;-3.210;2023-06-14T03:17:08;94021.69;;;15.08;79.46
80988;BME280;70452;39.386;-3.210;2023-06-14T03:19:35;94024.09;;;15.09;79.30
80988;BME280;70452;39.386;-3.210;2023-06-14T03:22:01;94029.69;;;15.04;79.51
80988;BME280;70452;39.386;-3.210;2023-06-14T03:24:28;94024.34;;;14.99;79.89
80988;BME280;70452;39.386;-3.210;2023-06-14T03:26:54;94031.47;;;15.00;79.62
80988;BME280;70452;39.386;-3.210;2023-06-14T03:29:20;94040.31;;;14.97;80.02
80988;BME280;70452;39.386;-3.210;2023-06-14T03:32:00;94042.09;;;14.93;80.08
80988;BME280;70452;39.386;-3.210;2023-06-14T03:34:26;94032.88;;;14.89;80.22
80988;BME280;70452;39.386;-3.210;2023-06-14T03:36:52;94033.81;;;14.84;80.18
80988;BME280;70452;39.386;-3.210;2023-06-14T03:39:18;94039.44;;;14.79;80.59
80988;BME280;70452;39.386;-3.210;2023-06-14T03:41:45;94040.53;;;14.78;80.59
80988;BME280;70452;39.386;-3.210;2023-06-14T03:44:11;94041.50;;;14.73;80.77
80988;BME280;70452;39.386;-3.210;2023-06-14T03:46:37;94041.28;;;14.70;80.99
80988;BME280;70452;39.386;-3.210;2023-06-14T03:49:03;94047.44;;;14.67;81.01
80988;BME280;70452;39.386;-3.210;2023-06-14T03:51:32;94049.03;;;14.68;81.01
80988;BME280;70452;39.386;-3.210;2023-06-14T03:54:01;94046.91;;;14.65;81.08
80988;BME280;70452;39.386;-3.210;2023-06-14T03:56:27;94047.72;;;14.65;80.99
80988;BME280;70452;39.386;-3.210;2023-06-14T03:58:54;94051.28;;;14.66;80.82
80988;BME280;70452;39.386;-3.210;2023-06-14T04:01:21;94049.66;;;14.65;80.83
80988;BME280;70452;39.386;-3.210;2023-06-14T04:03:52;94047.03;;;14.59;80.74
80988;BME280;70452;39.386;-3.210;2023-06-14T04:06:19;94048.44;;;14.57;81.15
80988;BME280;70452;39.386;-3.210;2023-06-14T04:08:45;94044.28;;;14.59;80.99
80988;BME280;70452;39.386;-3.210;2023-06-14T04:11:12;94045.72;;;14.57;80.87
80988;BME280;70452;39.386;-3.210;2023-06-14T04:13:40;94061.75;;;14.63;80.77
80988;BME280;70452;39.386;-3.210;2023-06-14T04:16:07;94064.38;;;14.69;80.49
80988;BME280;70452;39.386;-3.210;2023-06-14T04:18:34;94069.84;;;14.69;80.42
80988;BME280;70452;39.386;-3.210;2023-06-14T04:21:03;94061.13;;;14.67;80.43
80988;BME280;70452;39.386;-3.210;2023-06-14T04:23:33;94064.00;;;14.61;80.97
80988;BME280;70452;39.386;-3.210;2023-06-14T04:25:58;94065.81;;;14.52;81.18
80988;BME280;70452;39.386;-3.210;2023-06-14T04:28:29;94059.59;;;14.38;81.69
80988;BME280;70452;39.386;-3.210;2023-06-14T04:30:57;94067.13;;;14.32;82.11
80988;BME280;70452;39.386;-3.210;2023-06-14T04:33:27;94064.69;;;14.31;81.99
80988;BME280;70452;39.386;-3.210;2023-06-14T04:35:53;94066.31;;;14.32;82.00
80988;BME280;70452;39.386;-3.210;2023-06-14T04:38:19;94078.28;;;14.36;81.66
80988;BME280;70452;39.386;-3.210;2023-06-14T04:40:50;94084.56;;;14.36;81.90
80988;BME280;70452;39.386;-3.210;2023-06-14T04:43:18;94075.06;;;14.34;81.97
80988;BME280;70452;39.386;-3.210;2023-06-14T04:45:50;94075.66;;;14.31;82.01
80988;BME280;70452;39.386;-3.210;2023-06-14T04:48:18;94080.53;;;14.34;82.12
80988;BME280;70452;39.386;-3.210;2023-06-14T04:50:46;94084.88;;;14.35;82.09
80988;BME280;70452;39.386;-3.210;2023-06-14T04:53:13;94084.09;;;14.34;82.04
80988;BME280;70452;39.386;-3.210;2023-06-14T04:55:39;94081.22;;;14.39;81.91
80988;BME280;70452;39.386;-3.210;2023-06-14T04:58:10;94089.06;;;14.69;81.10
80988;BME280;70452;39.386;-3.210;2023-06-14T05:00:39;94079.97;;;15.13;78.89
80988;BME280;70452;39.386;-3.210;2023-06-14T05:03:05;94084.81;;;15.48;77.35
80988;BME280;70452;39.386;-3.210;2023-06-14T05:05:31;94086.84;;;15.73;76.22
80988;BME280;70452;39.386;-3.210;2023-06-14T05:07:57;94091.31;;;16.01;74.73
80988;BME280;70452;39.386;-3.210;2023-06-14T05:10:24;94081.16;;;16.54;72.57
80988;BME280;70452;39.386;-3.210;2023-06-14T05:12:50;94087.81;;;16.96;70.90
80988;BME280;70452;39.386;-3.210;2023-06-14T05:15:18;94095.75;;;16.98;70.67
80988;BME280;70452;39.386;-3.210;2023-06-14T05:17:45;94087.75;;;17.31;69.48
80988;BME280;70452;39.386;-3.210;2023-06-14T05:20:19;94090.78;;;17.47;68.80
80988;BME280;70452;39.386;-3.210;2023-06-14T05:22:46;94093.28;;;17.70;67.85
80988;BME280;70452;39.386;-3.210;2023-06-14T05:25:20;94104.06;;;17.92;66.95
80988;BME280;70452;39.386;-3.210;2023-06-14T05:27:48;94103.44;;;18.16;65.81
80988;BME280;70452;39.386;-3.210;2023-06-14T05:30:15;94105.00;;;18.26;64.68
80988;BME280;70452;39.386;-3.210;2023-06-14T05:32:42;94107.91;;;18.30;64.42
80988;BME280;70452;39.386;-3.210;2023-06-14T05:35:11;94110.50;;;18.05;65.25
80988;BME280;70452;39.386;-3.210;2023-06-14T05:37:43;94113.38;;;18.39;63.97
80988;BME280;70452;39.386;-3.210;2023-06-14T05:40:09;94113.50;;;18.63;63.45
80988;BME280;70452;39.386;-3.210;2023-06-14T05:42:36;94112.97;;;19.12;61.53
80988;BME280;70452;39.386;-3.210;2023-06-14T05:45:04;94114.66;;;19.25;60.99
80988;BME280;70452;39.386;-3.210;2023-06-14T05:47:31;94118.25;;;18.84;62.23
80988;BME280;70452;39.386;-3.210;2023-06-14T05:49:56;94120.59;;;18.94;61.92
80988;BME280;70452;39.386;-3.210;2023-06-14T05:52:23;94123.16;;;18.99;61.55
80988;BME280;70452;39.386;-3.210;2023-06-14T05:54:50;94126.63;;;19.75;60.87
80988;BME280;70452;39.386;-3.210;2023-06-14T05:57:15;94130.66;;;19.32;60.21
80988;BME280;70452;39.386;-3.210;2023-06-14T05:59:41;94139.94;;;19.61;59.32
80988;BME280;70452;39.386;-3.210;2023-06-14T06:02:07;94142.66;;;19.82;58.79
80988;BME280;70452;39.386;-3.210;2023-06-14T06:04:33;94151.47;;;20.09;57.96
80988;BME280;70452;39.386;-3.210;2023-06-14T06:06:58;94143.84;;;20.30;57.05
80988;BME280;70452;39.386;-3.210;2023-06-14T06:09:26;94141.06;;;20.67;55.42
80988;BME280;70452;39.386;-3.210;2023-06-14T06:11:54;94150.53;;;20.66;55.41
80988;BME280;70452;39.386;-3.210;2023-06-14T06:14:20;94149.72;;;20.66;55.46
80988;BME280;70452;39.386;-3.210;2023-06-14T06:16:46;94147.75;;;20.78;55.24
80988;BME280;70452;39.386;-3.210;2023-06-14T06:19:13;94148.81;;;21.43;53.31
80988;BME280;70452;39.386;-3.210;2023-06-14T06:21:40;94149.22;;;21.57;52.08
80988;BME280;70452;39.386;-3.210;2023-06-14T06:24:08;94165.13;;;21.88;52.22
80988;BME280;70452;39.386;-3.210;2023-06-14T06:26:34;94159.41;;;21.97;51.66
80988;BME280;70452;39.386;-3.210;2023-06-14T06:28:59;94162.78;;;22.70;49.73
80988;BME280;70452;39.386;-3.210;2023-06-14T06:31:25;94160.31;;;23.00;47.71
80988;BME280;70452;39.386;-3.210;2023-06-14T06:33:53;94162.97;;;23.13;47.92
80988;BME280;70452;39.386;-3.210;2023-06-14T06:36:19;94173.09;;;23.21;47.69
80988;BME280;70452;39.386;-3.210;2023-06-14T06:38:47;94169.88;;;23.03;48.19
80988;BME280;70452;39.386;-3.210;2023-06-14T06:41:13;94171.31;;;22.29;49.49
80988;BME280;70452;39.386;-3.210;2023-06-14T06:43:38;94166.00;;;21.77;50.19
80988;BME280;70452;39.386;-3.210;2023-06-14T06:46:09;94171.81;;;21.87;50.42
80988;BME280;70452;39.386;-3.210;2023-06-14T06:48:37;94167.34;;;21.83;50.40
80988;BME280;70452;39.386;-3.210;2023-06-14T06:51:02;94176.84;;;21.82;50.29
80988;BME280;70452;39.386;-3.210;2023-06-14T06:53:34;94186.63;;;21.63;50.32
80988;BME280;70452;39.386;-3.210;2023-06-14T06:56:03;94175.09;;;21.21;51.95
80988;BME280;70452;39.386;-3.210;2023-06-14T06:58:29;94183.41;;;21.21;52.46
80988;BME280;70452;39.386;-3.210;2023-06-14T07:00:55;94182.91;;;21.03;52.83
80988;BME280;70452;39.386;-3.210;2023-06-14T07:03:21;94179.38;;;21.18;52.26
80988;BME280;70452;39.386;-3.210;2023-06-14T07:05:46;94183.44;;;21.49;52.04
80988;BME280;70452;39.386;-3.210;2023-06-14T07:08:12;94191.06;;;21.52;51.83
80988;BME280;70452;39.386;-3.210;2023-06-14T07:10:38;94197.03;;;21.66;50.98
80988;BME280;70452;39.386;-3.210;2023-06-14T07:13:03;94198.88;;;21.22;52.03
80988;BME280;70452;39.386;-3.210;2023-06-14T07:15:29;94205.16;;;21.06;53.10
80988;BME280;70452;39.386;-3.210;2023-06-14T07:18:03;94205.88;;;20.91;53.21
80988;BME280;70452;39.386;-3.210;2023-06-14T07:20:29;94210.97;;;21.29;53.24
80988;BME280;70452;39.386;-3.210;2023-06-14T07:22:56;94209.25;;;21.65;51.97
80988;BME280;70452;39.386;-3.210;2023-06-14T07:25:22;94213.19;;;21.64;51.08
80988;BME280;70452;39.386;-3.210;2023-06-14T07:27:48;94209.22;;;21.94;50.78
80988;BME280;70452;39.386;-3.210;2023-06-14T07:30:14;94219.25;;;21.98;50.34
80988;BME280;70452;39.386;-3.210;2023-06-14T07:32:39;94214.44;;;21.67;51.18
80988;BME280;70452;39.386;-3.210;2023-06-14T07:35:05;94223.72;;;21.06;52.90
80988;BME280;70452;39.386;-3.210;2023-06-14T07:37:31;94218.69;;;21.48;52.05
80988;BME280;70452;39.386;-3.210;2023-06-14T07:39:57;94226.41;;;21.43;50.98
80988;BME280;70452;39.386;-3.210;2023-06-14T07:42:24;94225.59;;;21.02;51.40
80988;BME280;70452;39.386;-3.210;2023-06-14T07:44:50;94228.09;;;21.88;50.75
80988;BME280;70452;39.386;-3.210;2023-06-14T07:47:18;94227.06;;;22.08;49.43
80988;BME280;70452;39.386;-3.210;2023-06-14T07:49:43;94229.34;;;21.62;50.45
80988;BME280;70452;39.386;-3.210;2023-06-14T07:52:10;94237.91;;;22.14;49.78
80988;BME280;70452;39.386;-3.210;2023-06-14T07:54:36;94241.47;;;22.14;48.01
80988;BME280;70452;39.386;-3.210;2023-06-14T07:57:02;94243.13;;;21.87;49.57
80988;BME280;70452;39.386;-3.210;2023-06-14T07:59:28;94242.88;;;21.92;49.92
80988;BME280;70452;39.386;-3.210;2023-06-14T08:01:54;94240.75;;;22.45;48.81
80988;BME280;70452;39.386;-3.210;2023-06-14T08:04:19;94234.53;;;22.36;48.93
80988;BME280;70452;39.386;-3.210;2023-06-14T08:06:45;94235.38;;;22.24;48.70
80988;BME280;70452;39.386;-3.210;2023-06-14T08:09:13;94239.66;;;22.34;48.06
80988;BME280;70452;39.386;-3.210;2023-06-14T08:11:39;94239.44;;;22.27;49.10
80988;BME280;70452;39.386;-3.210;2023-06-14T08:14:05;94249.78;;;22.42;47.99
80988;BME280;70452;39.386;-3.210;2023-06-14T08:16:31;94248.69;;;22.31;48.93
80988;BME280;70452;39.386;-3.210;2023-06-14T08:18:57;94241.72;;;22.09;48.64
80988;BME280;70452;39.386;-3.210;2023-06-14T08:21:23;94243.72;;;22.08;48.22
80988;BME280;70452;39.386;-3.210;2023-06-14T08:23:49;94245.25;;;22.22;48.38
80988;BME280;70452;39.386;-3.210;2023-06-14T08:26:16;94244.03;;;22.35;48.59
80988;BME280;70452;39.386;-3.210;2023-06-14T08:28:42;94245.94;;;22.47;48.48
80988;BME280;70452;39.386;-3.210;2023-06-14T08:31:08;94242.09;;;22.68;47.19
80988;BME280;70452;39.386;-3.210;2023-06-14T08:33:35;94243.03;;;23.07;47.04
80988;BME280;70452;39.386;-3.210;2023-06-14T08:36:01;94255.91;;;22.99;47.23
80988;BME280;70452;39.386;-3.210;2023-06-14T08:38:28;94254.16;;;22.43;49.04
80988;BME280;70452;39.386;-3.210;2023-06-14T08:40:57;94257.09;;;22.82;47.49
80988;BME280;70452;39.386;-3.210;2023-06-14T08:43:23;94250.72;;;22.98;47.26
80988;BME280;70452;39.386;-3.210;2023-06-14T08:45:58;94253.41;;;23.46;46.03
80988;BME280;70452;39.386;-3.210;2023-06-14T08:48:28;94261.25;;;24.18;43.71
80988;BME280;70452;39.386;-3.210;2023-06-14T08:51:00;94254.84;;;23.94;44.39
80988;BME280;70452;39.386;-3.210;2023-06-14T08:53:32;94263.78;;;23.84;43.42
80988;BME280;70452;39.386;-3.210;2023-06-14T08:59:06;94256.66;;;24.72;42.89
80988;BME280;70452;39.386;-3.210;2023-06-14T09:01:36;94258.81;;;25.32;40.63
80988;BME280;70452;39.386;-3.210;2023-06-14T09:04:02;94262.16;;;25.41;40.57
80988;BME280;70452;39.386;-3.210;2023-06-14T09:06:30;94263.94;;;25.26;40.51
80988;BME280;70452;39.386;-3.210;2023-06-14T09:08:55;94260.44;;;25.33;40.79
80988;BME280;70452;39.386;-3.210;2023-06-14T09:11:24;94259.44;;;25.22;41.13
80988;BME280;70452;39.386;-3.210;2023-06-14T09:13:53;94255.09;;;25.51;40.27
80988;BME280;70452;39.386;-3.210;2023-06-14T09:16:18;94250.28;;;25.78;38.90
80988;BME280;70452;39.386;-3.210;2023-06-14T09:18:46;94256.31;;;25.50;39.62
80988;BME280;70452;39.386;-3.210;2023-06-14T09:21:16;94255.78;;;25.41;38.70
80988;BME280;70452;39.386;-3.210;2023-06-14T09:23:44;94250.13;;;25.64;38.28
80988;BME280;70452;39.386;-3.210;2023-06-14T09:26:12;94252.13;;;25.37;39.60
80988;BME280;70452;39.386;-3.210;2023-06-14T09:28:44;94255.31;;;24.85;39.96
80988;BME280;70452;39.386;-3.210;2023-06-14T09:31:15;94253.03;;;25.18;40.57
80988;BME280;70452;39.386;-3.210;2023-06-14T09:33:42;94250.59;;;24.43;41.04
80988;BME280;70452;39.386;-3.210;2023-06-14T09:36:15;94256.72;;;24.52;40.28
80988;BME280;70452;39.386;-3.210;2023-06-14T09:38:41;94249.78;;;24.43;40.89
80988;BME280;70452;39.386;-3.210;2023-06-14T09:41:07;94246.84;;;23.93;42.16
80988;BME280;70452;39.386;-3.210;2023-06-14T09:43:33;94258.25;;;24.27;41.71
80988;BME280;70452;39.386;-3.210;2023-06-14T09:46:00;94255.56;;;24.77;41.13
80988;BME280;70452;39.386;-3.210;2023-06-14T09:48:26;94258.22;;;25.19;39.75
80988;BME280;70452;39.386;-3.210;2023-06-14T09:50:53;94257.50;;;25.79;38.81
80988;BME280;70452;39.386;-3.210;2023-06-14T09:53:21;94252.41;;;25.55;39.58
80988;BME280;70452;39.386;-3.210;2023-06-14T09:55:49;94259.75;;;25.40;39.68
80988;BME280;70452;39.386;-3.210;2023-06-14T09:58:16;94264.50;;;24.86;40.87
80988;BME280;70452;39.386;-3.210;2023-06-14T10:00:43;94268.06;;;24.63;40.99
80988;BME280;70452;39.386;-3.210;2023-06-14T10:03:13;94260.47;;;24.41;42.08
80988;BME280;70452;39.386;-3.210;2023-06-14T10:05:42;94264.47;;;24.40;41.77
80988;BME280;70452;39.386;-3.210;2023-06-14T10:08:10;94257.13;;;24.74;41.17
80988;BME280;70452;39.386;-3.210;2023-06-14T10:10:39;94262.63;;;25.20;39.86
80988;BME280;70452;39.386;-3.210;2023-06-14T10:13:06;94266.66;;;25.50;39.78
80988;BME280;70452;39.386;-3.210;2023-06-14T10:15:41;94257.03;;;25.74;38.97
80988;BME280;70452;39.386;-3.210;2023-06-14T10:18:17;94266.78;;;25.30;40.03
80988;BME280;70452;39.386;-3.210;2023-06-14T10:21:13;94260.16;;;24.46;41.75
80988;BME280;70452;39.386;-3.210;2023-06-14T10:23:42;94257.25;;;24.39;41.09
80988;BME280;70452;39.386;-3.210;2023-06-14T10:26:19;94256.59;;;24.92;40.22
80988;BME280;70452;39.386;-3.210;2023-06-14T10:29:00;94255.19;;;24.78;40.91
80988;BME280;70452;39.386;-3.210;2023-06-14T10:31:43;94261.69;;;24.63;40.74
80988;BME280;70452;39.386;-3.210;2023-06-14T10:34:10;94261.25;;;24.84;40.45
80988;BME280;70452;39.386;-3.210;2023-06-14T10:36:36;94258.19;;;24.66;40.07
80988;BME280;70452;39.386;-3.210;2023-06-14T10:39:12;94249.69;;;24.16;40.09
80988;BME280;70452;39.386;-3.210;2023-06-14T10:41:42;94250.25;;;24.25;40.81
80988;BME280;70452;39.386;-3.210;2023-06-14T10:46:55;94260.78;;;25.28;39.65
80988;BME280;70452;39.386;-3.210;2023-06-14T10:49:42;94262.28;;;24.99;40.19
80988;BME280;70452;39.386;-3.210;2023-06-14T10:52:09;94259.53;;;24.76;40.65
80988;BME280;70452;39.386;-3.210;2023-06-14T10:54:37;94267.06;;;24.98;39.43
80988;BME280;70452;39.386;-3.210;2023-06-14T10:57:06;94263.66;;;25.35;39.72
80988;BME280;70452;39.386;-3.210;2023-06-14T10:59:33;94258.34;;;25.53;38.85
80988;BME280;70452;39.386;-3.210;2023-06-14T11:04:52;94242.31;;;24.70;40.09
80988;BME280;70452;39.386;-3.210;2023-06-14T11:07:38;94241.56;;;24.73;40.39
80988;BME280;70452;39.386;-3.210;2023-06-14T11:12:48;94235.25;;;25.87;38.23
80988;BME280;70452;39.386;-3.210;2023-06-14T11:15:15;94235.84;;;26.41;36.60
80988;BME280;70452;39.386;-3.210;2023-06-14T11:17:53;94231.03;;;25.96;37.48
80988;BME280;70452;39.386;-3.210;2023-06-14T11:20:19;94236.44;;;26.61;36.34
80988;BME280;70452;39.386;-3.210;2023-06-14T11:22:45;94231.59;;;26.54;36.67
80988;BME280;70452;39.386;-3.210;2023-06-14T11:25:11;94234.97;;;26.70;36.10
80988;BME280;70452;39.386;-3.210;2023-06-14T11:27:37;94225.41;;;26.75;36.21
80988;BME280;70452;39.386;-3.210;2023-06-14T11:30:06;94229.69;;;27.06;35.95
80988;BME280;70452;39.386;-3.210;2023-06-14T11:32:32;94226.84;;;25.53;38.54
80988;BME280;70452;39.386;-3.210;2023-06-14T11:34:58;94233.28;;;24.77;40.63
80988;BME280;70452;39.386;-3.210;2023-06-14T11:37:29;94231.28;;;25.57;39.01
80988;BME280;70452;39.386;-3.210;2023-06-14T11:39:59;94231.72;;;26.24;37.46
80988;BME280;70452;39.386;-3.210;2023-06-14T11:42:28;94226.72;;;26.06;38.31
80988;BME280;70452;39.386;-3.210;2023-06-14T11:44:55;94230.44;;;26.55;36.89
80988;BME280;70452;39.386;-3.210;2023-06-14T11:47:22;94232.63;;;26.76;36.48
80988;BME280;70452;39.386;-3.210;2023-06-14T11:49:48;94234.25;;;26.77;36.08
80988;BME280;70452;39.386;-3.210;2023-06-14T11:52:14;94232.97;;;26.71;36.62
80988;BME280;70452;39.386;-3.210;2023-06-14T11:54:40;94239.72;;;26.66;36.53
80988;BME280;70452;39.386;-3.210;2023-06-14T11:57:07;94230.09;;;26.23;36.92
80988;BME280;70452;39.386;-3.210;2023-06-14T11:59:40;94228.53;;;26.25;37.05
80988;BME280;70452;39.386;-3.210;2023-06-14T12:02:06;94241.41;;;26.74;35.92
80988;BME280;70452;39.386;-3.210;2023-06-14T12:04:33;94238.91;;;26.62;36.54
80988;BME280;70452;39.386;-3.210;2023-06-14T12:07:16;94241.09;;;26.87;35.24
80988;BME280;70452;39.386;-3.210;2023-06-14T12:12:38;94227.59;;;26.51;36.40
80988;BME280;70452;39.386;-3.210;2023-06-14T12:15:05;94239.50;;;25.77;37.81
80988;BME280;70452;39.386;-3.210;2023-06-14T12:17:35;94224.09;;;25.87;37.00
80988;BME280;70452;39.386;-3.210;2023-06-14T12:20:12;94214.72;;;26.39;36.33
80988;BME280;70452;39.386;-3.210;2023-06-14T12:22:55;94222.88;;;27.04;34.87
80988;BME280;70452;39.386;-3.210;2023-06-14T12:25:41;94213.69;;;27.03;34.75
80988;BME280;70452;39.386;-3.210;2023-06-14T12:28:10;94214.75;;;26.06;37.04
80988;BME280;70452;39.386;-3.210;2023-06-14T12:30:37;94217.94;;;26.04;36.90
80988;BME280;70452;39.386;-3.210;2023-06-14T12:33:04;94224.56;;;26.26;36.88
80988;BME280;70452;39.386;-3.210;2023-06-14T12:35:30;94217.50;;;25.38;38.72
80988;BME280;70452;39.386;-3.210;2023-06-14T12:37:57;94221.94;;;25.73;39.30
80988;BME280;70452;39.386;-3.210;2023-06-14T12:40:23;94225.38;;;26.68;37.31
80988;BME280;70452;39.386;-3.210;2023-06-14T12:42:48;94224.31;;;26.42;37.31
80988;BME280;70452;39.386;-3.210;2023-06-14T12:45:15;94229.50;;;26.44;37.24
80988;BME280;70452;39.386;-3.210;2023-06-14T12:47:41;94230.31;;;26.85;36.41
80988;BME280;70452;39.386;-3.210;2023-06-14T12:50:07;94226.47;;;27.04;34.77
80988;BME280;70452;39.386;-3.210;2023-06-14T12:52:32;94223.97;;;26.92;35.65
80988;BME280;70452;39.386;-3.210;2023-06-14T12:55:04;94237.97;;;27.47;35.03
80988;BME280;70452;39.386;-3.210;2023-06-14T12:57:30;94221.69;;;27.05;35.38
80988;BME280;70452;39.386;-3.210;2023-06-14T12:59:56;94230.03;;;27.01;36.00
80988;BME280;70452;39.386;-3.210;2023-06-14T13:02:22;94227.63;;;27.00;34.67
80988;BME280;70452;39.386;-3.210;2023-06-14T13:04:49;94227.69;;;27.07;34.58
80988;BME280;70452;39.386;-3.210;2023-06-14T13:07:14;94219.47;;;27.28;34.94
80988;BME280;70452;39.386;-3.210;2023-06-14T13:09:43;94223.78;;;26.67;35.57